Time;durP1;ratioP1;P1;durP2;ratioP2;P2;SDS_P1;SDS_P2;PMS_P1;PMS_P2;Temp;Humidity;BMP_temperature;BMP_pressure;BME280_temperature;BME280_humidity;BME280_pressure;Samples;Min_cycle;Max_cycle;Signal;HPM_P1;HPM_P2
2023/06/02 00:00:00;;;;;;;16.02;9.48;;;;;;;16.56;78.67;99216.09;5030788;28;20032;-79
2023/06/02 00:02:29;;;;;;;14.60;10.32;;;;;;;16.69;78.15;99200.56;5013594;28;20040;-79
2023/06/02 00:04:59;;;;;;;20.88;12.35;;;;;;;16.97;76.81;99204.13;5030347;28;20455;-79
2023/06/02 00:07:27;;;;;;;16.47;9.63;;;;;;;16.96;76.06;99196.84;5031510;28;20056;-79
2023/06/02 00:09:55;;;;;;;15.95;10.50;;;;;;;17.05;75.61;99193.75;5030378;28;20065;-80
2023/06/02 00:12:21;;;;;;;13.77;10.63;;;;;;;16.68;76.54;99193.28;5029778;28;20029;-79
2023/06/02 00:14:48;;;;;;;18.33;12.73;;;;;;;16.70;76.99;99190.88;5030308;28;20036;-79
2023/06/02 00:17:14;;;;;;;20.83;13.65;;;;;;;16.31;79.07;99196.81;5026287;28;20531;-79
2023/06/02 00:19:42;;;;;;;16.15;10.98;;;;;;;16.09;80.38;99199.31;5027098;28;20467;-79
2023/06/02 00:22:13;;;;;;;14.48;8.57;;;;;;;16.19;80.21;99199.84;5031209;28;20492;-80
2023/06/02 00:24:42;;;;;;;17.27;9.13;;;;;;;16.26;79.89;99195.13;5029738;28;20021;-79
2023/06/02 00:27:09;;;;;;;14.25;8.20;;;;;;;16.33;79.21;99197.25;5029986;28;20087;-80
2023/06/02 00:29:36;;;;;;;14.45;8.95;;;;;;;16.27;78.76;99195.94;5027020;28;20083;-79
2023/06/02 00:32:02;;;;;;;12.60;9.18;;;;;;;16.13;79.55;99199.38;5029563;28;20041;-80
2023/06/02 00:34:27;;;;;;;10.45;8.63;;;;;;;15.40;82.23;99177.59;5030773;28;20511;-79
2023/06/02 00:36:53;;;;;;;14.88;9.38;;;;;;;15.48;83.54;99195.44;5029441;28;20037;-79
2023/06/02 00:39:18;;;;;;;10.65;8.80;;;;;;;15.70;81.94;99188.97;5029937;28;20025;-79
2023/06/02 00:41:45;;;;;;;14.25;8.35;;;;;;;15.82;81.03;99196.44;5031061;28;20037;-79
2023/06/02 00:44:10;;;;;;;12.55;8.07;;;;;;;15.91;80.25;99189.72;5027883;28;20032;-80
2023/06/02 00:46:36;;;;;;;13.20;9.20;;;;;;;15.81;79.92;99182.72;5028022;28;20029;-79
2023/06/02 00:49:02;;;;;;;13.65;10.02;;;;;;;15.86;80.83;99197.31;5030763;28;20025;-80
2023/06/02 00:51:28;;;;;;;12.95;9.02;;;;;;;15.86;80.58;99200.13;5029237;28;20410;-79
2023/06/02 00:53:54;;;;;;;13.35;8.77;;;;;;;15.98;78.54;99195.50;5028626;28;20432;-79
2023/06/02 00:56:23;;;;;;;11.23;8.20;;;;;;;16.24;77.99;99197.53;5020743;28;20072;-79
2023/06/02 00:58:49;;;;;;;15.70;9.35;;;;;;;16.29;77.29;99199.22;5016822;28;20025;-79
2023/06/02 01:01:18;;;;;;;12.93;8.48;;;;;;;16.42;77.22;99189.31;5030788;28;20095;-79
2023/06/02 01:03:46;;;;;;;10.43;7.95;;;;;;;16.52;76.88;99204.75;5029295;28;20029;-80
2023/06/02 01:06:22;;;;;;;9.82;8.13;;;;;;;16.58;76.32;99202.41;5027929;28;20084;-80
2023/06/02 01:08:50;;;;;;;13.32;8.40;;;;;;;16.59;75.88;99197.56;5027591;28;20120;-80
2023/06/02 01:11:17;;;;;;;12.18;8.50;;;;;;;16.60;75.86;99202.84;5028102;28;20056;-80
2023/06/02 01:13:42;;;;;;;14.00;8.52;;;;;;;16.50;75.91;99197.88;5030444;28;20439;-80
2023/06/02 01:16:11;;;;;;;13.18;9.05;;;;;;;16.68;75.76;99192.47;5029983;28;20091;-80
2023/06/02 01:18:40;;;;;;;12.40;8.52;;;;;;;16.83;75.80;99196.28;5029361;28;20108;-80
2023/06/02 01:21:06;;;;;;;14.85;9.43;;;;;;;16.81;75.96;99195.84;5028415;28;20030;-80
2023/06/02 01:23:35;;;;;;;20.23;9.63;;;;;;;16.68;76.41;99184.81;5030800;28;20083;-80
2023/06/02 01:26:01;;;;;;;12.27;8.93;;;;;;;16.84;76.46;99203.56;5029605;28;20138;-80
2023/06/02 01:28:27;;;;;;;11.63;9.07;;;;;;;16.83;76.56;99190.63;5029199;28;20529;-79
2023/06/02 01:31:04;;;;;;;17.23;10.40;;;;;;;16.95;75.95;99190.38;5030905;28;20103;-80
2023/06/02 01:33:38;;;;;;;17.58;11.07;;;;;;;16.38;79.39;99191.25;5030731;28;20110;-80
2023/06/02 01:36:04;;;;;;;37.42;11.48;;;;;;;15.73;83.24;99187.41;5025425;28;20518;-80
2023/06/02 01:38:31;;;;;;;20.77;11.68;;;;;;;15.65;84.46;99182.84;5030546;28;20025;-80
2023/06/02 01:41:03;;;;;;;19.77;10.98;;;;;;;15.84;84.19;99193.22;5030787;28;20044;-80
2023/06/02 01:43:32;;;;;;;16.52;12.40;;;;;;;15.58;86.00;99201.28;5029307;28;20021;-79
2023/06/02 01:45:58;;;;;;;15.07;11.55;;;;;;;15.29;87.06;99197.91;5028801;28;20049;-80
2023/06/02 01:48:23;;;;;;;16.27;12.57;;;;;;;15.07;89.01;99191.06;5029001;28;20059;-80
2023/06/02 01:50:49;;;;;;;18.15;12.55;;;;;;;15.11;88.49;99186.31;5025457;28;20411;-80
2023/06/02 01:53:15;;;;;;;17.23;12.25;;;;;;;14.79;91.11;99194.13;5027795;28;20107;-79
2023/06/02 01:55:40;;;;;;;21.30;12.32;;;;;;;14.67;91.85;99169.72;5028411;28;20068;-80
2023/06/02 01:58:06;;;;;;;16.20;12.30;;;;;;;14.73;91.80;99179.53;5028703;28;20040;-80
2023/06/02 02:00:31;;;;;;;18.35;12.07;;;;;;;14.93;89.78;99177.50;5030038;28;20095;-80
2023/06/02 02:02:57;;;;;;;17.30;12.05;;;;;;;14.76;90.50;99190.03;5030474;28;20026;-79
2023/06/02 02:05:23;;;;;;;18.05;11.25;;;;;;;14.76;90.21;99192.06;5028861;28;20553;-79
2023/06/02 02:07:50;;;;;;;23.33;12.82;;;;;;;14.68;89.82;99183.41;5029963;28;20033;-79
2023/06/02 02:10:16;;;;;;;16.25;11.07;;;;;;;14.74;89.13;99184.78;5017511;28;20440;-80
2023/06/02 02:12:42;;;;;;;22.88;10.82;;;;;;;14.75;89.37;99182.78;5032006;28;20041;-80
2023/06/02 02:15:09;;;;;;;18.13;11.95;;;;;;;14.70;90.43;99191.50;5031925;28;20025;-80
2023/06/02 02:17:36;;;;;;;17.75;12.57;;;;;;;14.82;90.67;99179.28;5032164;28;20455;-80
2023/06/02 02:20:05;;;;;;;16.73;12.80;;;;;;;15.08;89.46;99189.88;5030838;28;20118;-79
2023/06/02 02:22:32;;;;;;;27.83;13.37;;;;;;;15.21;87.55;99187.72;5020717;28;20060;-80
2023/06/02 02:24:58;;;;;;;18.70;12.70;;;;;;;15.38;86.49;99194.06;5028793;28;21025;-80
2023/06/02 02:27:24;;;;;;;15.45;12.75;;;;;;;15.48;85.67;99187.81;5032117;28;20030;-80
2023/06/02 02:29:50;;;;;;;19.20;11.90;;;;;;;15.54;84.72;99179.84;5032253;28;20040;-80
2023/06/02 02:32:16;;;;;;;19.13;11.30;;;;;;;15.52;84.20;99196.31;5032053;28;20119;-80
2023/06/02 02:34:44;;;;;;;24.70;12.63;;;;;;;14.94;87.29;99184.78;5032279;28;20072;-80
2023/06/02 02:37:10;;;;;;;22.15;12.32;;;;;;;14.63;89.79;99188.53;5031787;28;20021;-80
2023/06/02 02:39:36;;;;;;;18.45;11.55;;;;;;;14.59;90.73;99185.63;5031807;28;20385;-80
2023/06/02 02:42:01;;;;;;;14.50;11.10;;;;;;;14.79;90.30;99185.69;5030604;28;20041;-80
2023/06/02 02:44:27;;;;;;;13.93;10.77;;;;;;;14.93;89.05;99183.16;5031873;28;20029;-80
2023/06/02 02:46:52;;;;;;;17.52;10.90;;;;;;;15.11;88.02;99182.69;5031582;28;20040;-80
2023/06/02 02:49:18;;;;;;;21.48;11.50;;;;;;;15.27;86.80;99191.06;5030585;28;20116;-80
2023/06/02 02:51:43;;;;;;;15.32;10.63;;;;;;;15.44;86.06;99184.09;5031340;28;20058;-80
2023/06/02 02:54:09;;;;;;;19.38;11.25;;;;;;;15.41;85.73;99188.50;5031333;28;20145;-80
2023/06/02 02:56:36;;;;;;;22.33;11.57;;;;;;;15.27;86.76;99180.56;5031421;28;20106;-80
2023/06/02 02:59:02;;;;;;;19.50;10.40;;;;;;;15.30;87.74;99184.66;5030590;28;20033;-80
2023/06/02 03:01:29;;;;;;;19.65;11.27;;;;;;;15.41;87.29;99187.66;5031087;28;20029;-79
2023/06/02 03:03:56;;;;;;;21.52;11.98;;;;;;;15.15;88.44;99175.94;5031659;28;20029;-80
2023/06/02 03:06:22;;;;;;;18.02;11.45;;;;;;;15.57;87.12;99188.38;5032965;28;20021;-80
2023/06/02 03:08:47;;;;;;;21.27;12.80;;;;;;;15.40;87.86;99186.03;5030663;28;20411;-80
2023/06/02 03:11:14;;;;;;;23.20;13.13;;;;;;;15.28;88.57;99187.84;5030376;28;20029;-80
2023/06/02 03:13:39;;;;;;;24.23;15.10;;;;;;;15.10;89.82;99186.69;5031208;28;20416;-80
2023/06/02 03:16:06;;;;;;;41.00;13.38;;;;;;;15.32;88.90;99184.25;5031443;28;20045;-80
2023/06/02 03:18:31;;;;;;;23.25;13.10;;;;;;;15.53;87.21;99181.84;5032309;28;20459;-80
2023/06/02 03:20:58;;;;;;;20.33;12.98;;;;;;;15.58;86.35;99175.91;5032721;28;20108;-80
2023/06/02 03:23:25;;;;;;;33.03;13.32;;;;;;;15.57;86.24;99171.47;5032668;28;20029;-80
2023/06/02 03:25:51;;;;;;;30.55;14.65;;;;;;;15.64;85.77;99186.84;5029059;28;20034;-80
2023/06/02 03:28:18;;;;;;;32.80;14.55;;;;;;;15.75;85.38;99178.56;5032593;28;20025;-80
2023/06/02 03:30:43;;;;;;;36.80;14.63;;;;;;;15.85;85.07;99180.75;5031189;28;20496;-80
2023/06/02 03:33:09;;;;;;;27.02;13.45;;;;;;;15.97;84.13;99182.59;5030176;28;20030;-80
2023/06/02 03:35:34;;;;;;;33.35;12.88;;;;;;;15.93;84.01;99187.38;5024008;28;20034;-80
2023/06/02 03:38:00;;;;;;;22.85;12.68;;;;;;;15.62;85.29;99172.31;5030976;28;20086;-79
2023/06/02 03:40:25;;;;;;;22.05;12.68;;;;;;;15.79;85.09;99171.78;5031123;28;20021;-80
2023/06/02 03:42:51;;;;;;;45.72;14.38;;;;;;;15.79;85.08;99180.25;5030632;28;20099;-80
2023/06/02 03:45:16;;;;;;;19.40;12.40;;;;;;;15.42;87.12;99181.66;5031519;28;20048;-80
2023/06/02 03:47:42;;;;;;;24.65;13.23;;;;;;;15.50;86.52;99182.59;5031631;28;20504;-80
2023/06/02 03:50:08;;;;;;;19.15;14.02;;;;;;;15.35;87.60;99186.34;5029680;28;20055;-79
2023/06/02 03:52:33;;;;;;;28.83;16.02;;;;;;;15.24;88.00;99186.97;5030430;28;20059;-80
2023/06/02 03:54:58;;;;;;;23.95;15.02;;;;;;;15.05;89.50;99179.38;5030576;28;20037;-83
2023/06/02 03:57:24;;;;;;;20.20;12.60;;;;;;;15.05;90.00;99189.81;5032379;28;20033;-83
2023/06/02 03:59:50;;;;;;;18.00;12.95;;;;;;;15.15;90.00;99184.41;5032079;28;20477;-83
2023/06/02 04:02:16;;;;;;;18.45;13.40;;;;;;;15.18;89.50;99182.81;5030524;28;20033;-83
2023/06/02 04:04:41;;;;;;;24.77;12.63;;;;;;;14.50;93.74;99171.78;5030711;28;20424;-82
2023/06/02 04:07:07;;;;;;;17.45;11.88;;;;;;;14.67;94.43;99181.78;5027564;28;20021;-84
2023/06/02 04:09:34;;;;;;;21.13;12.82;;;;;;;14.60;94.03;99176.03;5029312;28;20515;-84
2023/06/02 04:11:59;;;;;;;17.35;11.32;;;;;;;14.91;92.15;99181.91;5023021;28;20037;-84
2023/06/02 04:14:25;;;;;;;16.25;12.75;;;;;;;14.45;94.27;99169.28;5024609;28;20052;-77
2023/06/02 04:16:50;;;;;;;20.23;12.30;;;;;;;14.65;94.40;99172.06;5027623;28;20029;-77
2023/06/02 04:19:16;;;;;;;22.45;11.63;;;;;;;14.96;92.53;99179.59;5031549;28;20028;-77
2023/06/02 04:21:41;;;;;;;14.57;11.25;;;;;;;15.11;91.92;99179.88;5028522;28;20032;-77
2023/06/02 04:24:07;;;;;;;20.20;12.10;;;;;;;15.06;92.46;99182.97;5029514;28;20033;-77
2023/06/02 04:26:32;;;;;;;22.17;11.80;;;;;;;15.29;91.18;99183.03;5030042;28;20404;-77
2023/06/02 04:28:57;;;;;;;17.05;10.90;;;;;;;15.30;92.76;99187.47;5030221;28;20021;-76
2023/06/02 04:31:43;;;;;;;21.00;12.27;;;;;;;15.61;92.36;99187.59;5027381;28;20070;-79
2023/06/02 04:34:12;;;;;;;14.95;11.75;;;;;;;15.77;92.22;99184.66;5028165;28;20029;-79
2023/06/02 04:36:41;;;;;;;16.48;12.40;;;;;;;16.04;92.18;99190.34;5028377;28;20033;-79
2023/06/02 04:39:08;;;;;;;15.25;11.95;;;;;;;16.06;91.54;99185.97;5030618;28;20057;-80
2023/06/02 04:41:34;;;;;;;14.93;12.00;;;;;;;16.27;91.41;99187.47;5026086;28;20025;-79
2023/06/02 04:44:01;;;;;;;21.38;12.75;;;;;;;16.36;90.47;99181.56;5018659;28;20493;-78
2023/06/02 04:46:27;;;;;;;16.52;12.43;;;;;;;16.55;89.42;99181.41;5021497;28;20029;-79
2023/06/02 04:48:53;;;;;;;17.60;13.20;;;;;;;16.69;89.30;99192.09;5017078;28;20072;-81
2023/06/02 04:51:25;;;;;;;20.98;13.93;;;;;;;17.06;88.44;99186.91;5024917;28;20049;-81
2023/06/02 04:53:50;;;;;;;26.52;13.05;;;;;;;17.35;87.40;99187.19;5021156;28;20057;-78
2023/06/02 04:56:16;;;;;;;22.05;13.48;;;;;;;17.66;84.92;99200.00;5021293;28;20503;-81
2023/06/02 04:58:41;;;;;;;21.85;14.98;;;;;;;17.67;84.08;99198.81;5026355;28;20443;-81
2023/06/02 05:01:06;;;;;;;23.88;11.18;;;;;;;17.90;81.39;99208.31;5029662;28;20026;-81
2023/06/02 05:03:32;;;;;;;22.75;11.77;;;;;;;18.16;78.61;99200.84;5030015;28;20034;-81
2023/06/02 05:05:57;;;;;;;20.83;11.45;;;;;;;18.32;77.16;99195.69;5029442;28;20063;-81
2023/06/02 05:08:23;;;;;;;13.48;8.77;;;;;;;18.47;75.80;99195.81;5031047;28;20049;-81
2023/06/02 05:10:48;;;;;;;20.48;11.05;;;;;;;18.36;76.37;99190.88;5030969;28;20040;-81
2023/06/02 05:13:16;;;;;;;14.50;10.07;;;;;;;18.71;75.34;99211.28;5031320;28;20519;-82
2023/06/02 05:15:41;;;;;;;14.73;10.77;;;;;;;18.88;74.33;99206.94;5029108;28;20037;-81
2023/06/02 05:18:07;;;;;;;12.43;9.52;;;;;;;18.96;72.16;99201.28;5027642;28;20087;-81
2023/06/02 05:20:32;;;;;;;11.50;8.90;;;;;;;18.97;70.90;99208.59;5031199;28;20025;-82
2023/06/02 05:22:58;;;;;;;14.43;8.43;;;;;;;18.91;71.45;99214.63;5029678;28;20129;-81
2023/06/02 05:25:23;;;;;;;14.45;8.38;;;;;;;19.12;71.01;99215.13;5028693;28;20025;-76
2023/06/02 05:27:49;;;;;;;18.35;8.85;;;;;;;18.97;70.63;99212.22;5028542;28;20389;-74
2023/06/02 05:30:14;;;;;;;15.10;8.63;;;;;;;18.71;71.57;99222.63;5030649;28;20492;-74
2023/06/02 05:32:40;;;;;;;13.07;9.00;;;;;;;18.75;71.25;99219.81;5027030;28;20026;-71
2023/06/02 05:35:06;;;;;;;11.25;8.63;;;;;;;19.07;71.17;99219.19;5026483;28;20038;-77
2023/06/02 05:37:31;;;;;;;11.85;8.13;;;;;;;19.36;69.40;99216.44;5021667;28;20112;-78
2023/06/02 05:39:57;;;;;;;17.35;9.60;;;;;;;19.57;67.67;99214.84;5029352;28;20025;-75
2023/06/02 05:42:22;;;;;;;13.30;7.10;;;;;;;19.61;66.83;99218.50;5028272;28;20025;-72
2023/06/02 05:44:48;;;;;;;14.30;8.13;;;;;;;19.72;66.45;99221.34;5033605;28;20408;-75
2023/06/02 05:47:14;;;;;;;13.95;8.90;;;;;;;19.76;65.75;99225.00;5033550;28;20029;-75
2023/06/02 05:49:39;;;;;;;13.15;8.35;;;;;;;20.20;65.45;99212.44;5034455;28;20037;-76
2023/06/02 05:52:05;;;;;;;12.02;7.68;;;;;;;20.50;63.07;99223.78;5034050;28;20057;-76
2023/06/02 05:54:30;;;;;;;9.75;7.15;;;;;;;20.68;60.96;99235.09;5028940;28;20103;-75
2023/06/02 05:56:56;;;;;;;12.70;6.57;;;;;;;20.92;60.16;99218.41;5017778;28;20057;-75
2023/06/02 05:59:21;;;;;;;18.65;7.40;;;;;;;21.01;59.71;99221.63;5022008;28;20057;-75
2023/06/02 06:01:46;;;;;;;12.43;6.93;;;;;;;21.28;59.46;99229.59;5030136;28;20036;-76
2023/06/02 06:04:12;;;;;;;8.20;6.50;;;;;;;21.49;59.05;99228.66;5032403;28;20079;-73
2023/06/02 06:06:37;;;;;;;8.75;6.20;;;;;;;21.41;58.13;99221.38;5029471;28;20052;-73
2023/06/02 06:09:05;;;;;;;13.05;7.20;;;;;;;21.22;59.18;99226.38;5028857;28;20425;-74
2023/06/02 06:11:31;;;;;;;11.95;7.85;;;;;;;21.30;58.43;99227.16;5026159;28;20037;-75
2023/06/02 06:13:57;;;;;;;14.20;7.32;;;;;;;21.20;59.29;99219.47;5024501;28;20092;-77
2023/06/02 06:16:22;;;;;;;7.43;5.40;;;;;;;21.27;56.76;99225.16;5032033;28;20030;-76
2023/06/02 06:18:48;;;;;;;9.90;6.22;;;;;;;21.44;56.18;99221.38;5030514;28;20056;-75
2023/06/02 06:21:13;;;;;;;9.32;7.38;;;;;;;21.71;56.20;99220.03;5026676;28;20029;-76
2023/06/02 06:23:39;;;;;;;11.48;6.85;;;;;;;22.14;54.85;99221.72;5033467;28;20033;-79
2023/06/02 06:26:04;;;;;;;10.70;6.70;;;;;;;22.21;54.41;99223.69;5033789;28;20025;-76
2023/06/02 06:28:30;;;;;;;14.27;6.78;;;;;;;21.86;54.39;99226.44;5033537;28;20032;-77
2023/06/02 06:30:55;;;;;;;10.38;7.00;;;;;;;22.13;55.04;99218.03;5032966;28;20036;-76
2023/06/02 06:33:21;;;;;;;10.55;6.13;;;;;;;22.37;55.72;99218.22;5031504;28;20025;-76
2023/06/02 06:35:46;;;;;;;15.45;7.35;;;;;;;22.66;53.71;99222.84;5031500;28;20037;-77
2023/06/02 06:38:11;;;;;;;8.02;5.65;;;;;;;22.92;53.12;99221.34;5030119;28;20434;-76
2023/06/02 06:40:37;;;;;;;8.57;6.70;;;;;;;22.99;52.33;99214.72;5029152;28;20057;-76
2023/06/02 06:43:02;;;;;;;12.70;7.28;;;;;;;23.27;51.54;99215.59;5018037;28;20032;-76
2023/06/02 06:45:28;;;;;;;10.40;6.60;;;;;;;22.48;53.42;99215.31;5030251;28;20032;-76
2023/06/02 06:47:53;;;;;;;6.40;5.78;;;;;;;22.81;52.42;99221.47;5028702;28;20108;-76
2023/06/02 06:50:19;;;;;;;10.80;6.70;;;;;;;22.99;52.57;99217.59;5033102;28;20033;-76
2023/06/02 06:52:46;;;;;;;16.35;6.05;;;;;;;23.08;50.76;99211.34;5028602;28;20057;-76
2023/06/02 06:55:11;;;;;;;7.97;6.45;;;;;;;23.30;51.06;99206.22;5030713;28;20159;-77
2023/06/02 06:57:37;;;;;;;7.55;6.15;;;;;;;23.35;51.58;99202.88;5023154;28;20521;-76
2023/06/02 07:00:03;;;;;;;9.90;6.45;;;;;;;23.06;51.14;99208.13;5031594;28;20378;-76
2023/06/02 07:02:29;;;;;;;9.27;5.90;;;;;;;23.08;50.98;99203.63;5025987;28;20033;-76
2023/06/02 07:04:54;;;;;;;17.38;6.50;;;;;;;23.28;50.92;99197.25;5015461;28;20044;-77
2023/06/02 07:07:20;;;;;;;14.50;7.63;;;;;;;23.28;50.76;99208.66;5027936;28;20049;-76
2023/06/02 07:09:46;;;;;;;10.30;6.28;;;;;;;22.91;52.18;99199.75;5031639;28;20021;-77
2023/06/02 07:12:12;;;;;;;8.38;6.25;;;;;;;23.50;50.85;99202.66;5032900;28;20028;-77
2023/06/02 07:14:37;;;;;;;8.32;6.28;;;;;;;23.79;49.66;99202.22;5033002;28;20488;-76
2023/06/02 07:17:03;;;;;;;13.27;6.45;;;;;;;24.09;49.60;99189.09;5029684;28;20025;-80
2023/06/02 07:19:28;;;;;;;9.88;6.50;;;;;;;23.81;48.61;99199.75;5022065;28;20049;-77
2023/06/02 07:21:54;;;;;;;8.32;5.53;;;;;;;24.14;48.13;99196.38;5024703;28;20037;-77
2023/06/02 07:24:20;;;;;;;11.10;6.72;;;;;;;22.97;50.91;99197.25;5032344;28;20029;-76
2023/06/02 07:26:45;;;;;;;13.65;6.10;;;;;;;22.62;52.25;99190.75;5026951;28;20134;-75
2023/06/02 07:29:11;;;;;;;13.63;7.00;;;;;;;23.20;51.80;99199.38;5018708;28;20029;-76
2023/06/02 07:31:36;;;;;;;8.55;6.60;;;;;;;23.76;49.88;99183.91;5022023;28;20041;-76
2023/06/02 07:34:03;;;;;;;15.00;10.15;;;;;;;24.05;50.39;99179.78;5022599;28;20033;-75
2023/06/02 07:36:28;;;;;;;29.45;16.42;;;;;;;24.46;48.24;99183.56;5026942;28;20033;-76
2023/06/02 07:38:53;;;;;;;137.02;106.07;;;;;;;24.51;48.34;99183.03;5031310;28;20083;-76
2023/06/02 07:41:20;;;;;;;51.78;46.33;;;;;;;23.86;48.35;99182.09;5030887;28;20029;-74
2023/06/02 07:43:46;;;;;;;13.95;8.60;;;;;;;24.26;47.99;99178.59;5030676;28;20036;-76
2023/06/02 07:46:12;;;;;;;8.50;5.97;;;;;;;24.51;46.77;99189.56;5031627;28;20068;-76
2023/06/02 07:48:38;;;;;;;12.55;8.27;;;;;;;24.93;46.16;99180.59;5031588;28;20503;-77
2023/06/02 07:51:04;;;;;;;8.18;5.75;;;;;;;25.35;44.15;99188.66;5030373;28;20033;-77
2023/06/02 07:53:29;;;;;;;9.05;5.85;;;;;;;25.48;42.25;99185.09;5032030;28;20025;-77
2023/06/02 07:55:56;;;;;;;22.92;18.33;;;;;;;25.64;45.98;99182.28;5031791;28;20051;-76
2023/06/02 07:58:22;;;;;;;127.18;113.20;;;;;;;25.11;45.34;99179.38;5030142;28;20061;-76
2023/06/02 08:00:48;;;;;;;65.15;55.03;;;;;;;25.27;46.22;99175.75;5031809;28;20064;-76
2023/06/02 08:03:15;;;;;;;23.88;18.45;;;;;;;25.15;45.81;99179.31;5031981;28;20060;-76
2023/06/02 08:05:42;;;;;;;176.98;142.80;;;;;;;25.49;46.37;99178.94;5030986;28;20476;-77
2023/06/02 08:08:09;;;;;;;22.20;16.90;;;;;;;25.44;47.06;99179.47;5027512;28;20022;-77
2023/06/02 08:10:35;;;;;;;146.32;130.65;;;;;;;24.98;45.41;99182.13;5029910;28;20033;-75
2023/06/02 08:13:00;;;;;;;63.47;56.15;;;;;;;24.52;46.77;99178.91;5029386;28;20029;-75
2023/06/02 08:15:26;;;;;;;15.80;7.43;;;;;;;23.99;47.62;99168.03;5031234;28;20028;-76
2023/06/02 08:17:51;;;;;;;20.35;14.68;;;;;;;24.53;47.01;99169.91;5031719;28;20029;-79
2023/06/02 08:20:17;;;;;;;14.50;6.75;;;;;;;23.92;47.79;99166.09;5031720;28;20025;-78
2023/06/02 08:22:44;;;;;;;6.68;5.63;;;;;;;24.81;47.13;99167.75;5028441;28;20029;-79
2023/06/02 08:25:12;;;;;;;115.70;103.38;;;;;;;24.86;46.35;99157.03;5030282;28;20030;-79
2023/06/02 08:27:38;;;;;;;14.30;10.43;;;;;;;25.35;46.68;99162.91;5031585;28;20524;-79
2023/06/02 08:30:07;;;;;;;12.43;5.85;;;;;;;25.59;44.79;99161.97;5031426;28;20113;-78
2023/06/02 08:32:33;;;;;;;25.77;22.58;;;;;;;25.73;46.85;99155.88;5025954;28;20033;-79
2023/06/02 08:35:01;;;;;;;12.77;7.10;;;;;;;26.20;44.42;99165.38;5023858;28;20502;-81
2023/06/02 08:37:27;;;;;;;12.13;6.10;;;;;;;26.31;44.13;99153.63;5026997;28;20026;-80
2023/06/02 08:39:53;;;;;;;13.65;6.43;;;;;;;26.52;41.56;99160.00;5023173;28;20094;-81
2023/06/02 08:42:20;;;;;;;6.43;5.43;;;;;;;26.33;42.08;99151.13;5020544;28;20060;-83
2023/06/02 08:44:45;;;;;;;7.78;5.65;;;;;;;26.62;41.73;99144.56;5028715;28;20029;-80
2023/06/02 08:47:12;;;;;;;10.75;6.63;;;;;;;26.28;40.71;99143.06;5024972;28;20551;-81
2023/06/02 08:49:43;;;;;;;7.65;5.00;;;;;;;26.35;39.22;99152.25;5027777;28;20029;-83
2023/06/02 08:52:18;;;;;;;6.80;5.93;;;;;;;26.66;40.76;99145.25;5028724;28;20513;-83
2023/06/02 08:54:44;;;;;;;6.18;5.05;;;;;;;26.65;40.49;99149.38;5031328;28;20109;-78
2023/06/02 08:57:13;;;;;;;9.02;5.32;;;;;;;26.81;39.26;99144.84;5027601;28;20419;-78
2023/06/02 08:59:39;;;;;;;6.30;5.63;;;;;;;26.98;38.52;99134.94;5016565;28;20850;-80
2023/06/02 09:02:05;;;;;;;13.13;5.38;;;;;;;27.12;38.86;99132.88;5028930;28;20051;-75
2023/06/02 09:04:31;;;;;;;11.35;5.55;;;;;;;27.14;38.15;99136.91;5026002;28;20029;-78
2023/06/02 09:07:12;;;;;;;8.52;4.93;;;;;;;26.75;36.88;99128.19;5028890;28;20029;-83
2023/06/02 09:09:54;;;;;;;9.55;5.55;;;;;;;26.84;35.71;99126.72;5020320;28;20120;-83
2023/06/02 09:12:20;;;;;;;10.77;5.65;;;;;;;26.84;37.50;99126.72;5008944;28;20018;-82
2023/06/02 09:15:08;;;;;;;9.68;5.43;;;;;;;27.09;37.22;99131.75;5014489;28;20542;-84
2023/06/02 09:17:33;;;;;;;6.65;4.93;;;;;;;27.22;37.06;99123.13;5032974;28;20065;-76
2023/06/02 09:20:07;;;;;;;7.22;4.80;;;;;;;27.52;36.16;99123.00;5033036;28;20456;-76
2023/06/02 09:22:32;;;;;;;7.03;5.18;;;;;;;27.54;36.67;99118.44;5031804;28;20405;-75
2023/06/02 09:24:58;;;;;;;8.90;5.97;;;;;;;27.68;36.54;99119.22;5031636;28;20112;-76
2023/06/02 09:27:25;;;;;;;10.95;5.82;;;;;;;27.93;37.72;99115.47;5032010;28;20025;-76
2023/06/02 09:29:58;;;;;;;7.53;5.50;;;;;;;27.58;37.69;99116.25;5029758;28;20076;-75
2023/06/02 09:32:24;;;;;;;7.43;5.45;;;;;;;27.55;37.04;99114.31;5032032;28;20029;-77
2023/06/02 09:34:50;;;;;;;9.48;5.82;;;;;;;27.61;36.88;99115.31;5028492;28;20033;-78
2023/06/02 09:37:17;;;;;;;6.90;5.47;;;;;;;27.63;32.88;99114.06;5035231;28;20530;-81
2023/06/02 09:39:52;;;;;;;8.35;5.18;;;;;;;27.46;34.70;99105.56;5034813;28;20021;-81
2023/06/02 09:42:19;;;;;;;7.55;4.90;;;;;;;27.70;33.90;99099.47;5032469;28;20025;-82
2023/06/02 09:45:05;;;;;;;9.25;6.05;;;;;;;27.73;35.02;99098.53;5033008;28;20025;-80
2023/06/02 09:47:40;;;;;;;7.80;4.85;;;;;;;27.94;33.40;99099.06;5033288;28;20500;-80
2023/06/02 09:50:07;;;;;;;9.77;5.30;;;;;;;27.84;33.92;99093.22;5030779;28;20017;-79
2023/06/02 09:52:32;;;;;;;19.77;6.60;;;;;;;28.17;34.16;99092.06;5022707;28;20037;-79
2023/06/02 09:54:59;;;;;;;11.65;6.18;;;;;;;28.30;35.19;99086.31;5034355;28;20038;-80
2023/06/02 09:57:25;;;;;;;7.65;6.05;;;;;;;28.21;34.71;99074.72;5019304;28;20026;-79
2023/06/02 09:59:51;;;;;;;9.18;6.82;;;;;;;28.41;36.18;99072.34;5014475;28;20034;-79
2023/06/02 10:02:16;;;;;;;16.65;6.75;;;;;;;28.51;34.66;99070.31;5014606;28;20129;-80
2023/06/02 10:04:42;;;;;;;10.30;5.82;;;;;;;28.38;34.86;99067.53;5018532;28;20469;-79
2023/06/02 10:07:45;;;;;;;21.58;6.57;;;;;;;28.23;34.29;99073.00;5034114;28;20029;-80
2023/06/02 10:10:17;;;;;;;14.55;7.43;;;;;;;28.44;34.22;99070.59;5034183;28;20496;-79
2023/06/02 10:13:22;;;;;;;10.00;7.00;;;;;;;28.47;35.29;99063.09;5032731;28;20033;-79
2023/06/02 10:16:07;;;;;;;10.35;6.32;;;;;;;28.29;35.29;99056.75;5034071;28;20033;-80
2023/06/02 10:18:53;;;;;;;11.63;6.72;;;;;;;28.30;35.35;99060.44;5034057;28;20033;-81
2023/06/02 10:21:37;;;;;;;18.50;7.82;;;;;;;28.31;34.96;99050.53;5034191;28;20582;-79
2023/06/02 10:24:17;;;;;;;14.90;7.45;;;;;;;28.55;33.92;99050.06;5032776;28;20403;-79
2023/06/02 10:26:51;;;;;;;11.35;7.38;;;;;;;28.43;34.86;99046.78;5033817;28;20033;-80
2023/06/02 10:29:18;;;;;;;7.57;6.03;;;;;;;28.84;34.38;99041.13;5032396;28;20049;-80
2023/06/02 10:31:44;;;;;;;13.48;5.88;;;;;;;28.61;34.17;99045.31;5034096;28;20473;-80
2023/06/02 10:34:36;;;;;;;14.43;5.97;;;;;;;28.87;34.75;99036.53;5033948;28;20060;-80
2023/06/02 10:37:05;;;;;;;21.50;6.72;;;;;;;29.09;33.70;99047.16;5032650;28;20041;-80
2023/06/02 10:39:40;;;;;;;10.65;6.13;;;;;;;28.72;31.71;99042.81;5033431;28;20026;-80
2023/06/02 10:42:11;;;;;;;12.27;5.65;;;;;;;28.60;31.42;99046.59;5028570;28;20090;-81
2023/06/02 10:44:37;;;;;;;8.75;5.07;;;;;;;28.77;30.75;99052.09;5033405;28;20496;-80
2023/06/02 10:47:17;;;;;;;12.15;6.03;;;;;;;28.98;30.80;99044.72;5032087;28;20103;-80
2023/06/02 10:49:58;;;;;;;8.23;5.70;;;;;;;28.79;30.25;99038.84;5033575;28;20083;-80
2023/06/02 10:52:24;;;;;;;9.05;5.85;;;;;;;29.20;31.10;99038.06;5033222;28;20061;-79
2023/06/02 10:55:11;;;;;;;11.07;4.82;;;;;;;29.05;30.74;99040.72;5032155;28;20124;-80
2023/06/02 10:58:03;;;;;;;8.80;4.30;;;;;;;28.94;30.96;99033.34;5030908;28;20041;-80
2023/06/02 11:00:43;;;;;;;15.10;6.03;;;;;;;29.39;31.09;99024.53;5013739;28;20038;-81
2023/06/02 11:03:17;;;;;;;6.32;5.10;;;;;;;29.19;30.91;99022.09;5013854;28;20100;-80
2023/06/02 11:05:45;;;;;;;10.80;5.57;;;;;;;29.04;30.37;99016.09;5013791;28;20033;-80
2023/06/02 11:08:21;;;;;;;10.75;6.45;;;;;;;28.99;31.09;99020.41;5012266;28;20018;-79
2023/06/02 11:10:49;;;;;;;10.27;5.78;;;;;;;29.38;30.88;99020.06;5013327;28;20405;-78
2023/06/02 11:13:18;;;;;;;9.30;5.38;;;;;;;29.22;31.03;99012.50;5013650;28;20105;-79
2023/06/02 11:15:58;;;;;;;9.60;5.82;;;;;;;29.32;29.66;99013.31;5027204;28;20067;-79
2023/06/02 11:18:33;;;;;;;8.00;5.88;;;;;;;29.24;30.43;99010.75;5029042;28;20087;-81
2023/06/02 11:21:03;;;;;;;8.23;5.68;;;;;;;29.19;31.15;99008.47;5032363;28;20032;-80
2023/06/02 11:23:29;;;;;;;9.98;5.13;;;;;;;29.13;31.99;98996.00;5032375;28;20072;-80
2023/06/02 11:26:01;;;;;;;8.82;4.90;;;;;;;29.10;31.50;99005.59;5032105;28;20079;-82